Time;durP1;ratioP1;P1;durP2;ratioP2;P2;SDS_P1;SDS_P2;PMS_P1;PMS_P2;Temp;Humidity;BMP_temperature;BMP_pressure;BME280_temperature;BME280_humidity;BME280_pressure;Samples;Min_cycle;Max_cycle;Signal;HPM_P1;HPM_P2
2022/11/04 00:01:55;;;;;;;8.68;7.78;;;12.20;99.90;;;;;;5069167;28;20488;-78
2022/11/04 00:04:23;;;;;;;8.18;6.93;;;12.30;99.90;;;;;;5053768;28;20056;-78
2022/11/04 00:06:49;;;;;;;7.30;5.85;;;12.20;99.90;;;;;;5097570;27;20040;-78
2022/11/04 00:09:20;;;;;;;6.18;5.57;;;12.20;99.90;;;;;;5082945;28;20081;-75
2022/11/04 00:14:31;;;;;;;6.60;5.13;;;12.10;99.90;;;;;;5064550;28;20056;-78
2022/11/04 00:30:53;;;;;;;3.35;1.90;;;11.90;99.90;;;;;;5055880;28;20106;-78
2022/11/04 00:33:24;;;;;;;3.58;1.50;;;11.90;99.90;;;;;;5068620;28;20055;-78
2022/11/04 00:35:55;;;;;;;5.50;1.50;;;11.80;99.90;;;;;;5061658;28;20040;-78
2022/11/04 00:38:22;;;;;;;1.88;1.35;;;11.80;99.90;;;;;;5064132;28;20044;-79
2022/11/04 00:40:48;;;;;;;2.53;1.35;;;11.80;99.90;;;;;;5064127;28;20041;-78
2022/11/04 00:43:13;;;;;;;2.03;1.10;;;11.80;99.90;;;;;;5061314;28;20044;-78
2022/11/04 00:45:41;;;;;;;2.22;1.05;;;11.70;99.90;;;;;;5068385;28;20045;-78
2022/11/04 00:48:07;;;;;;;;;;;11.80;99.90;;;;;;5069026;28;20480;-78
2022/11/04 00:50:32;;;;;;;1.92;0.93;;;11.70;99.90;;;;;;5070016;28;19931;-79
2022/11/04 00:52:59;;;;;;;1.92;0.85;;;11.70;99.90;;;;;;5065561;28;20051;-79
2022/11/04 00:55:25;;;;;;;1.48;0.75;;;11.60;99.90;;;;;;5068297;28;20090;-78
2022/11/04 00:57:51;;;;;;;2.38;0.90;;;11.60;99.90;;;;;;5066758;28;20057;-76
2022/11/04 01:00:16;;;;;;;1.27;0.80;;;11.70;99.90;;;;;;5062295;28;20429;-78
2022/11/04 01:02:42;;;;;;;1.38;0.90;;;11.70;99.90;;;;;;5075858;28;20437;-77
2022/11/04 01:05:08;;;;;;;2.13;0.90;;;11.60;99.90;;;;;;5068899;28;20548;-78
2022/11/04 01:07:33;;;;;;;1.75;0.95;;;11.60;99.90;;;;;;5067692;28;20082;-78
2022/11/04 01:09:59;;;;;;;1.85;0.77;;;11.50;99.90;;;;;;5077081;28;20127;-78
2022/11/04 01:12:25;;;;;;;4.20;0.75;;;11.50;99.90;;;;;;5068993;28;20048;-78
2022/11/04 01:14:51;;;;;;;2.42;0.73;;;11.50;99.90;;;;;;5068311;28;20446;-78
2022/11/04 01:17:16;;;;;;;1.17;0.80;;;11.50;99.90;;;;;;5062480;28;20052;-77
2022/11/04 01:19:42;;;;;;;2.97;0.90;;;11.50;99.90;;;;;;5066089;28;20080;-79
2022/11/04 01:22:08;;;;;;;2.20;0.90;;;11.50;99.90;;;;;;5064350;28;20048;-78
2022/11/04 01:24:33;;;;;;;2.58;0.77;;;11.40;99.90;;;;;;5080988;28;20032;-78
2022/11/04 01:26:59;;;;;;;2.67;0.80;;;11.40;99.90;;;;;;5062954;28;20469;-78
2022/11/04 01:29:25;;;;;;;1.02;0.80;;;11.40;99.90;;;;;;5049270;28;20049;-78
2022/11/04 01:31:50;;;;;;;2.03;1.00;;;11.30;99.90;;;;;;5089158;28;20052;-77
2022/11/04 01:34:16;;;;;;;3.38;1.00;;;11.20;99.90;;;;;;5051175;28;20049;-78
2022/11/04 01:36:41;;;;;;;1.42;0.90;;;11.20;99.90;;;;;;5069610;28;20408;-78
2022/11/04 01:39:08;;;;;;;2.50;0.90;;;11.20;99.90;;;;;;5070372;28;20056;-78
2022/11/04 01:41:34;;;;;;;2.47;1.00;;;11.20;99.90;;;;;;5076402;28;20391;-78
2022/11/04 01:44:24;;;;;;;2.40;1.10;;;11.20;99.90;;;;;;5098566;28;20048;-78
2022/11/04 01:46:52;;;;;;;1.92;1.15;;;11.20;99.90;;;;;;5051994;28;20044;-78
2022/11/04 01:49:34;;;;;;;3.17;1.20;;;11.20;99.90;;;;;;5049987;28;20083;-78
2022/11/04 01:52:07;;;;;;;3.80;1.50;;;11.30;99.90;;;;;;5055615;28;20364;-78
2022/11/04 01:54:34;;;;;;;2.38;1.40;;;11.30;99.90;;;;;;5068444;28;20049;-78
2022/11/04 01:57:03;;;;;;;4.07;1.95;;;11.30;99.90;;;;;;5065109;28;20123;-77
2022/11/04 01:59:33;;;;;;;4.20;2.88;;;11.30;99.90;;;;;;5082847;28;20055;-77
2022/11/04 02:01:59;;;;;;;5.07;3.10;;;11.30;99.90;;;;;;5075116;28;20280;-77
2022/11/04 02:04:25;;;;;;;4.57;3.30;;;11.30;99.90;;;;;;5068574;28;20662;-77
2022/11/04 02:07:01;;;;;;;5.47;3.72;;;11.40;99.90;;;;;;5062247;28;20044;-77
2022/11/04 02:09:28;;;;;;;5.78;4.00;;;11.40;99.90;;;;;;5060054;28;20037;-77
2022/11/04 02:14:39;;;;;;;6.53;4.47;;;11.40;99.90;;;;;;5081374;28;20051;-77
2022/11/04 02:17:18;;;;;;;6.22;4.93;;;11.40;99.90;;;;;;5080307;28;20714;-77
2022/11/04 02:19:58;;;;;;;7.15;5.22;;;11.40;99.90;;;;;;5066236;28;20056;-77
2022/11/04 02:22:46;;;;;;;6.82;5.30;;;11.50;99.90;;;;;;5074339;28;20140;-77
2022/11/04 02:25:30;;;;;;;8.00;6.07;;;11.50;99.90;;;;;;5085512;28;20074;-77
2022/11/04 02:28:29;;;;;;;8.65;6.25;;;11.50;99.90;;;;;;5073505;28;20511;-77
2022/11/04 02:31:07;;;;;;;9.02;6.20;;;11.50;99.90;;;;;;5056132;28;20044;-77
2022/11/04 02:33:45;;;;;;;8.38;7.13;;;11.50;99.90;;;;;;5056103;28;20128;-77
2022/11/04 02:36:20;;;;;;;8.77;7.65;;;11.50;99.90;;;;;;5065411;28;20078;-77
2022/11/04 02:39:09;;;;;;;9.30;7.95;;;11.50;99.90;;;;;;5074838;28;20115;-77
2022/11/04 02:41:39;;;;;;;9.13;8.23;;;11.50;99.90;;;;;;5057389;28;20119;-77
2022/11/04 02:44:36;;;;;;;10.10;8.30;;;11.50;99.90;;;;;;5062636;28;20079;-77
2022/11/04 02:47:05;;;;;;;9.93;8.45;;;11.50;99.90;;;;;;5063848;28;20064;-77
2022/11/04 02:50:09;;;;;;;8.98;8.10;;;11.50;99.90;;;;;;5066954;28;20523;-77
2022/11/04 02:52:56;;;;;;;11.13;9.15;;;11.50;99.90;;;;;;5062700;28;20051;-77
2022/11/04 02:55:27;;;;;;;13.95;10.40;;;11.50;99.90;;;;;;5079463;28;20578;-77
2022/11/04 02:57:56;;;;;;;11.68;9.95;;;11.50;99.90;;;;;;5059761;28;20048;-77
2022/11/04 03:00:23;;;;;;;10.80;8.63;;;11.50;99.90;;;;;;5069721;28;20089;-77
2022/11/04 03:02:57;;;;;;;8.57;7.50;;;11.40;99.90;;;;;;5066891;28;20080;-77
2022/11/04 03:05:29;;;;;;;9.30;7.40;;;11.40;99.90;;;;;;5047094;28;20041;-77
2022/11/04 03:07:59;;;;;;;9.32;8.38;;;11.40;99.90;;;;;;5048917;28;20044;-77
2022/11/04 03:10:34;;;;;;;9.80;8.80;;;11.40;99.90;;;;;;5073349;28;20044;-77
2022/11/04 03:13:35;;;;;;;10.10;8.98;;;11.40;99.90;;;;;;5067884;28;20086;-77
2022/11/04 03:16:05;;;;;;;9.80;8.80;;;11.40;99.90;;;;;;5065037;28;20043;-77
2022/11/04 03:18:33;;;;;;;9.68;8.43;;;11.40;99.90;;;;;;5059790;28;20047;-77
2022/11/04 03:21:04;;;;;;;9.90;7.70;;;11.40;99.90;;;;;;5062683;28;20054;-77
2022/11/04 03:23:30;;;;;;;9.18;7.22;;;11.30;99.90;;;;;;5058962;28;20428;-76
2022/11/04 03:26:02;;;;;;;7.10;6.40;;;11.30;99.90;;;;;;5068661;28;20430;-77
2022/11/04 03:28:42;;;;;;;8.65;6.03;;;11.40;99.90;;;;;;5059758;28;20071;-78
2022/11/04 03:31:21;;;;;;;6.97;5.40;;;11.30;99.90;;;;;;5062130;28;20053;-77
2022/11/04 03:33:49;;;;;;;6.43;4.93;;;11.30;99.90;;;;;;5071887;28;20046;-78
2022/11/04 03:36:16;;;;;;;6.05;4.80;;;11.30;99.90;;;;;;5093128;28;20043;-77
2022/11/04 03:38:43;;;;;;;5.00;4.10;;;11.30;99.90;;;;;;5073110;28;20048;-77
2022/11/04 03:41:17;;;;;;;6.17;4.47;;;11.20;99.90;;;;;;5048411;28;20127;-77
2022/11/04 03:43:42;;;;;;;6.40;4.47;;;11.10;99.90;;;;;;5066087;28;20067;-77
2022/11/04 03:46:08;;;;;;;4.30;3.85;;;11.20;99.90;;;;;;5058465;28;20458;-77
2022/11/04 03:48:34;;;;;;;5.53;4.05;;;11.10;99.90;;;;;;5061480;28;20032;-77
2022/11/04 03:51:00;;;;;;;4.55;3.97;;;11.20;99.90;;;;;;5059226;28;20047;-77
2022/11/04 03:53:28;;;;;;;4.60;3.88;;;11.10;99.90;;;;;;5075612;28;20054;-77
2022/11/04 03:55:59;;;;;;;4.03;3.13;;;11.10;99.90;;;;;;5068320;28;20045;-77
2022/11/04 03:58:49;;;;;;;4.70;3.28;;;11.00;99.90;;;;;;5062761;28;20124;-78
2022/11/04 04:01:24;;;;;;;2.40;1.98;;;11.00;99.90;;;;;;5053807;28;20052;-78
2022/11/04 04:04:16;;;;;;;2.80;1.50;;;10.90;99.90;;;;;;5062608;28;20053;-78
2022/11/04 04:06:43;;;;;;;2.72;1.30;;;10.90;99.90;;;;;;5059725;28;20044;-78
2022/11/04 04:09:20;;;;;;;2.10;1.10;;;10.80;99.90;;;;;;5066946;28;20042;-78
2022/11/04 04:12:04;;;;;;;1.13;0.90;;;10.70;99.90;;;;;;5063996;28;20098;-78
2022/11/04 04:14:43;;;;;;;1.42;0.70;;;10.70;99.90;;;;;;5051180;28;20041;-78
2022/11/04 04:17:28;;;;;;;1.15;0.70;;;10.60;99.90;;;;;;5055379;28;20408;-78
2022/11/04 04:20:00;;;;;;;2.38;0.90;;;10.60;99.90;;;;;;5055910;28;20063;-78
2022/11/04 04:22:46;;;;;;;1.83;0.75;;;10.50;99.90;;;;;;5061273;28;20407;-78
2022/11/04 04:28:00;;;;;;;2.75;1.00;;;10.50;99.90;;;;;;5071734;28;20052;-78
2022/11/04 04:30:26;;;;;;;1.08;0.70;;;10.50;99.90;;;;;;5058608;28;20076;-78
2022/11/04 04:32:57;;;;;;;1.60;0.60;;;10.50;99.90;;;;;;5072752;28;20044;-78
2022/11/04 04:35:43;;;;;;;2.40;0.70;;;10.40;99.90;;;;;;5065781;28;20049;-78
2022/11/04 04:46:47;;;;;;;2.67;0.98;;;10.40;99.90;;;;;;5065557;28;20049;-78
2022/11/04 04:49:13;;;;;;;1.73;0.93;;;10.40;99.90;;;;;;5062368;28;20688;-78
2022/11/04 04:51:42;;;;;;;2.70;0.90;;;10.40;99.90;;;;;;5074969;28;20040;-78
2022/11/04 04:54:08;;;;;;;2.78;0.88;;;10.40;99.90;;;;;;5081967;28;20079;-78
2022/11/04 04:56:34;;;;;;;2.15;1.02;;;10.40;99.90;;;;;;5062349;28;20060;-78
2022/11/04 04:58:59;;;;;;;2.50;1.10;;;10.40;99.90;;;;;;5061830;28;20052;-78
2022/11/04 05:01:25;;;;;;;2.10;1.40;;;10.40;99.90;;;;;;5064346;28;20560;-78
2022/11/04 05:03:50;;;;;;;3.15;1.80;;;10.40;99.90;;;;;;5072931;28;20047;-77
2022/11/04 05:06:16;;;;;;;3.30;1.50;;;10.40;99.90;;;;;;5063056;28;20048;-78
2022/11/04 05:08:42;;;;;;;2.70;1.60;;;10.40;99.90;;;;;;5072582;28;20075;-78
2022/11/04 05:11:07;;;;;;;3.97;1.48;;;10.50;99.90;;;;;;5057950;28;20540;-77
2022/11/04 05:13:33;;;;;;;2.70;1.52;;;10.40;99.90;;;;;;5067419;28;20055;-77
2022/11/04 05:16:04;;;;;;;2.10;1.40;;;10.50;99.90;;;;;;5094691;28;20526;-78
2022/11/04 05:18:30;;;;;;;4.38;1.85;;;10.50;99.90;;;;;;5055372;28;20554;-78
2022/11/04 05:20:55;;;;;;;3.97;1.65;;;10.50;99.90;;;;;;5058607;28;20049;-78
2022/11/04 05:23:21;;;;;;;3.72;1.80;;;10.50;99.90;;;;;;5061072;28;20087;-77
2022/11/04 05:25:47;;;;;;;2.90;1.80;;;10.40;99.90;;;;;;5059364;28;20037;-78
2022/11/04 05:28:12;;;;;;;4.18;2.03;;;10.50;99.90;;;;;;5069701;28;20093;-78
2022/11/04 05:30:38;;;;;;;3.70;1.75;;;10.50;99.90;;;;;;5057909;28;20056;-78
2022/11/04 05:33:04;;;;;;;2.90;2.10;;;10.50;99.90;;;;;;5066913;28;20131;-78
2022/11/04 05:35:30;;;;;;;3.55;1.90;;;10.40;99.90;;;;;;5067475;28;20044;-78
2022/11/04 05:37:56;;;;;;;3.33;2.08;;;10.40;99.90;;;;;;5063225;28;20543;-78
2022/11/04 05:40:22;;;;;;;2.10;1.65;;;10.30;99.90;;;;;;5065242;28;20050;-78
2022/11/04 05:42:48;;;;;;;2.30;1.60;;;10.30;99.90;;;;;;5067648;28;20077;-78
2022/11/04 05:45:14;;;;;;;3.28;1.63;;;10.30;99.90;;;;;;5070985;28;20426;-78
2022/11/04 05:47:39;;;;;;;4.63;1.40;;;10.30;99.90;;;;;;5060083;28;20060;-77
2022/11/04 05:50:05;;;;;;;3.08;1.38;;;10.30;99.90;;;;;;5065493;28;20045;-78
2022/11/04 05:52:31;;;;;;;2.85;1.10;;;10.20;99.90;;;;;;5071367;28;20139;-78
2022/11/04 05:54:57;;;;;;;4.40;1.30;;;10.10;99.90;;;;;;5116793;27;20127;-78
2022/11/04 05:57:22;;;;;;;3.10;1.10;;;10.10;99.90;;;;;;5063385;28;20051;-77
2022/11/04 05:59:48;;;;;;;4.15;1.15;;;9.90;99.90;;;;;;5050731;28;20032;-78
2022/11/04 06:02:13;;;;;;;2.45;1.17;;;10.00;99.90;;;;;;5064952;28;20040;-78
2022/11/04 06:04:39;;;;;;;3.08;1.55;;;10.00;99.90;;;;;;5068849;28;20067;-77
2022/11/04 06:07:05;;;;;;;2.90;1.67;;;10.00;99.90;;;;;;5067090;28;20501;-78
2022/11/04 06:09:40;;;;;;;4.30;1.50;;;10.00;99.90;;;;;;5069546;28;20044;-77
2022/11/04 06:12:07;;;;;;;2.67;1.52;;;10.00;99.90;;;;;;5068733;28;20096;-78
2022/11/04 06:14:32;;;;;;;3.03;1.45;;;10.00;99.90;;;;;;5074335;28;20045;-78
2022/11/04 06:16:59;;;;;;;4.10;1.70;;;10.00;99.90;;;;;;5063094;28;20357;-77
2022/11/04 06:19:25;;;;;;;3.38;1.80;;;10.00;99.90;;;;;;5058560;28;20128;-78
2022/11/04 06:21:52;;;;;;;4.60;1.92;;;10.00;99.90;;;;;;5063610;28;20135;-77
2022/11/04 06:24:17;;;;;;;5.50;1.80;;;10.00;99.90;;;;;;5051952;28;20048;-77
2022/11/04 06:26:43;;;;;;;7.82;1.95;;;9.90;99.90;;;;;;5064631;28;20048;-78
2022/11/04 06:29:08;;;;;;;3.60;1.98;;;9.90;99.90;;;;;;5074483;28;20055;-77
2022/11/04 06:31:34;;;;;;;5.00;2.80;;;10.00;99.90;;;;;;5081666;28;20930;-77
2022/11/04 06:34:00;;;;;;;4.05;2.40;;;10.00;99.90;;;;;;5059466;28;20177;-77
2022/11/04 06:36:26;;;;;;;6.40;3.42;;;10.00;99.90;;;;;;5061635;28;20572;-77
2022/11/04 06:38:52;;;;;;;3.53;2.28;;;10.00;99.90;;;;;;5057926;28;20049;-77
2022/11/04 06:41:17;;;;;;;3.55;2.50;;;10.00;99.90;;;;;;5069081;28;20078;-77
2022/11/04 06:43:43;;;;;;;4.10;2.50;;;10.00;99.90;;;;;;5080627;28;20060;-77
2022/11/04 06:46:26;;;;;;;3.35;2.00;;;9.90;99.90;;;;;;5064042;28;20040;-77
2022/11/04 06:48:51;;;;;;;4.07;1.83;;;10.00;99.90;;;;;;5065924;28;20136;-77
2022/11/04 06:51:17;;;;;;;2.58;1.48;;;10.10;99.90;;;;;;5057201;28;20160;-77
2022/11/04 06:53:43;;;;;;;2.67;1.10;;;10.00;99.90;;;;;;5064635;28;20055;-77
2022/11/04 06:56:09;;;;;;;2.92;1.33;;;10.00;99.90;;;;;;5071807;28;20052;-80
2022/11/04 06:58:35;;;;;;;2.83;1.15;;;10.00;99.90;;;;;;5077131;28;20590;-77
2022/11/04 07:01:00;;;;;;;3.15;1.40;;;10.10;99.90;;;;;;5068464;28;20079;-77
2022/11/04 07:03:26;;;;;;;1.65;1.38;;;10.10;99.90;;;;;;5065472;28;20111;-77
2022/11/04 07:05:52;;;;;;;2.78;1.20;;;10.10;99.90;;;;;;5060036;28;20105;-77
2022/11/04 07:08:18;;;;;;;2.08;1.30;;;10.10;99.90;;;;;;5056011;28;20064;-77
2022/11/04 07:10:44;;;;;;;4.20;1.40;;;10.10;99.90;;;;;;5059502;28;20045;-77
2022/11/04 07:13:10;;;;;;;3.15;2.10;;;10.10;99.90;;;;;;5067147;28;20131;-77
2022/11/04 07:15:39;;;;;;;5.30;2.90;;;10.10;99.90;;;;;;5070396;28;20036;-76
2022/11/04 07:18:08;;;;;;;6.70;4.20;;;10.10;99.90;;;;;;5059497;28;20052;-77
2022/11/04 07:20:36;;;;;;;8.38;5.82;;;10.10;99.90;;;;;;5066440;28;20101;-76
2022/11/04 07:23:01;;;;;;;9.05;6.57;;;10.00;99.90;;;;;;5055916;28;20154;-77
2022/11/04 07:25:27;;;;;;;8.70;7.07;;;10.00;99.90;;;;;;5060530;28;20064;-77
2022/11/04 07:27:53;;;;;;;10.30;7.78;;;10.00;99.90;;;;;;5065711;28;20087;-76
2022/11/04 07:30:19;;;;;;;10.85;8.75;;;10.00;99.90;;;;;;5067578;28;20071;-76
2022/11/04 07:32:46;;;;;;;10.20;9.15;;;10.00;99.90;;;;;;5064596;28;20139;-77
2022/11/04 07:35:12;;;;;;;10.77;9.30;;;10.00;99.90;;;;;;5060389;28;20131;-77
2022/11/04 07:37:38;;;;;;;12.50;10.50;;;10.00;99.90;;;;;;5070107;28;20067;-76
2022/11/04 07:40:05;;;;;;;12.63;11.40;;;10.00;99.90;;;;;;5063199;28;20029;-77
2022/11/04 07:42:33;;;;;;;13.13;11.75;;;10.00;99.90;;;;;;5058684;28;20490;-76
2022/11/04 07:44:59;;;;;;;14.95;11.82;;;10.00;99.90;;;;;;5058806;28;20421;-77
2022/11/04 07:47:28;;;;;;;14.93;12.75;;;10.00;99.90;;;;;;5060053;28;20041;-77
2022/11/04 07:49:54;;;;;;;14.23;11.93;;;10.10;99.90;;;;;;5050788;28;20470;-77
2022/11/04 07:52:19;;;;;;;15.07;13.48;;;10.10;99.90;;;;;;5061403;28;20076;-76
2022/11/04 07:54:45;;;;;;;15.23;13.63;;;10.10;99.90;;;;;;5059637;28;20396;-76
2022/11/04 07:57:11;;;;;;;16.77;14.95;;;10.10;99.90;;;;;;5067664;28;20048;-76
2022/11/04 07:59:36;;;;;;;15.93;14.30;;;10.10;99.90;;;;;;5047321;28;20068;-76
2022/11/04 08:02:05;;;;;;;18.75;15.15;;;10.10;99.90;;;;;;5062080;28;20084;-74
2022/11/04 08:04:31;;;;;;;18.77;15.75;;;10.10;99.90;;;;;;5056722;28;20041;-76
2022/11/04 08:06:57;;;;;;;18.63;16.65;;;10.10;99.90;;;;;;5063170;28;20493;-88
2022/11/04 08:09:23;;;;;;;21.58;16.85;;;10.10;99.90;;;;;;5066709;28;20040;-79
2022/11/04 08:11:48;;;;;;;20.27;17.65;;;10.20;99.90;;;;;;5066969;28;20040;-77
2022/11/04 08:14:14;;;;;;;19.45;16.63;;;10.20;99.90;;;;;;5066070;28;20146;-84
2022/11/04 08:16:40;;;;;;;22.17;18.10;;;10.30;99.90;;;;;;5054389;28;20115;-87
2022/11/04 08:19:06;;;;;;;23.67;19.20;;;10.30;99.90;;;;;;5062722;28;20139;-90
2022/11/04 08:21:33;;;;;;;21.02;18.83;;;10.30;99.90;;;;;;5056739;28;20874;-90
2022/11/04 08:23:58;;;;;;;24.08;19.48;;;10.30;99.90;;;;;;5065042;28;20167;-82
2022/11/04 08:26:25;;;;;;;24.25;19.25;;;10.40;99.90;;;;;;5069107;28;20143;-86
2022/11/04 08:28:51;;;;;;;24.45;21.38;;;10.50;99.90;;;;;;5058547;28;20400;-88
2022/11/04 08:31:23;;;;;;;22.73;19.42;;;10.50;99.90;;;;;;5086619;28;20050;-85
2022/11/04 08:33:48;;;;;;;22.33;20.00;;;10.50;99.90;;;;;;5065235;28;20059;-84
2022/11/04 08:36:23;;;;;;;23.45;19.45;;;10.50;99.90;;;;;;5081333;28;20931;-86
2022/11/04 08:38:50;;;;;;;22.67;20.15;;;10.50;99.90;;;;;;5068633;28;20036;-85
2022/11/04 08:41:22;;;;;;;24.50;20.48;;;10.50;99.90;;;;;;5059571;28;20045;-83
2022/11/04 08:43:47;;;;;;;24.42;20.58;;;10.60;99.90;;;;;;5062548;28;20067;-84
2022/11/04 08:46:13;;;;;;;24.95;19.42;;;10.70;99.90;;;;;;5063415;28;20155;-81
2022/11/04 08:48:40;;;;;;;22.88;19.77;;;10.70;99.90;;;;;;5072070;28;20600;-86
2022/11/04 08:51:11;;;;;;;26.17;18.52;;;10.70;99.90;;;;;;5056076;28;20036;-89
2022/11/04 08:53:37;;;;;;;20.58;17.38;;;10.60;99.90;;;;;;5067121;28;20037;-84
2022/11/04 08:56:14;;;;;;;21.85;18.63;;;10.60;99.90;;;;;;5085417;28;20508;-80
2022/11/04 08:58:40;;;;;;;21.50;18.95;;;10.70;99.90;;;;;;5052218;28;20048;-83
2022/11/04 09:01:06;;;;;;;23.27;19.45;;;10.60;99.90;;;;;;5056370;28;20036;-80
2022/11/04 09:03:33;;;;;;;23.40;20.10;;;10.80;99.90;;;;;;5064867;28;20049;-83
2022/11/04 09:06:00;;;;;;;21.45;19.13;;;10.80;99.90;;;;;;5055301;28;20036;-88
2022/11/04 09:08:25;;;;;;;22.08;19.67;;;11.00;99.90;;;;;;5065119;28;20507;-85
2022/11/04 09:10:51;;;;;;;23.83;19.88;;;11.00;99.90;;;;;;5061189;28;20058;-87
2022/11/04 09:13:17;;;;;;;24.85;20.83;;;11.00;99.90;;;;;;5067222;28;20076;-84
2022/11/04 09:15:43;;;;;;;26.92;21.02;;;11.00;99.90;;;;;;5077639;28;20614;-92
2022/11/04 09:18:09;;;;;;;25.65;21.00;;;11.00;99.90;;;;;;5084587;28;20123;-90
2022/11/04 09:20:37;;;;;;;35.88;20.60;;;11.10;99.90;;;;;;5086670;28;20032;-92
2022/11/04 09:23:03;;;;;;;56.08;23.40;;;11.10;99.90;;;;;;5073038;28;20086;-78
2022/11/04 09:25:29;;;;;;;24.83;19.48;;;11.20;99.90;;;;;;5086900;28;20122;-70
2022/11/04 09:27:54;;;;;;;24.13;20.55;;;11.20;99.90;;;;;;5067520;28;20218;-71
2022/11/04 09:30:20;;;;;;;50.40;24.40;;;11.20;99.90;;;;;;5067176;28;20043;-79
2022/11/04 09:32:46;;;;;;;47.28;24.80;;;11.20;99.90;;;;;;5087278;28;20044;-68
2022/11/04 09:35:11;;;;;;;31.90;23.35;;;11.10;99.90;;;;;;5087236;28;20039;-69
2022/11/04 09:37:37;;;;;;;26.75;23.25;;;11.10;99.90;;;;;;5090526;28;20054;-70
2022/11/04 09:40:03;;;;;;;30.38;24.55;;;11.10;99.90;;;;;;5082741;28;20154;-70
2022/11/04 09:42:29;;;;;;;31.10;25.52;;;11.10;99.90;;;;;;5086669;28;20118;-71
2022/11/04 09:45:00;;;;;;;31.25;25.60;;;11.10;99.90;;;;;;5070029;28;20127;-78
2022/11/04 09:47:29;;;;;;;31.45;26.05;;;11.20;99.90;;;;;;5081407;28;20045;-88
2022/11/04 09:49:57;;;;;;;30.42;26.85;;;11.20;99.90;;;;;;5082583;28;20639;-82
2022/11/04 09:52:27;;;;;;;35.05;27.77;;;11.20;99.90;;;;;;5078028;28;20051;-83
2022/11/04 09:55:21;;;;;;;31.60;26.55;;;11.20;99.90;;;;;;5074171;28;20124;-84
2022/11/04 09:57:54;;;;;;;33.00;27.48;;;11.20;99.90;;;;;;5072198;28;20048;-84
2022/11/04 10:00:20;;;;;;;30.50;27.08;;;11.20;99.90;;;;;;5065663;28;20407;-85
2022/11/04 10:03:07;;;;;;;30.60;27.23;;;11.10;99.90;;;;;;5058571;28;20043;-84
2022/11/04 10:05:45;;;;;;;30.83;26.98;;;11.10;99.90;;;;;;5072153;28;20056;-71
2022/11/04 10:08:47;;;;;;;34.38;28.40;;;11.10;99.90;;;;;;5071959;28;20048;-83
2022/11/04 10:12:00;;;;;;;31.35;27.98;;;11.10;99.90;;;;;;5070141;28;20395;-82
2022/11/04 10:14:33;;;;;;;38.38;30.02;;;11.10;99.90;;;;;;5055855;28;20110;-69
2022/11/04 10:17:17;;;;;;;35.05;29.75;;;11.10;99.90;;;;;;5079884;28;20164;-71
2022/11/04 10:20:00;;;;;;;32.88;28.58;;;11.20;99.90;;;;;;5063841;28;20036;-70
2022/11/04 10:22:37;;;;;;;32.45;28.77;;;11.30;99.90;;;;;;5071235;28;20045;-70
2022/11/04 10:25:12;;;;;;;;;;;11.20;99.90;;;;;;5075523;28;20741;-80
2022/11/04 10:27:45;;;;;;;33.45;27.25;;;11.30;99.90;;;;;;5080957;28;19931;-78
2022/11/04 10:30:17;;;;;;;31.67;26.73;;;11.30;99.90;;;;;;5089049;28;20044;-77
2022/11/04 10:32:58;;;;;;;30.25;26.50;;;11.40;99.90;;;;;;5086675;28;20698;-75
2022/11/04 10:35:29;;;;;;;32.50;26.73;;;11.50;99.90;;;;;;5056556;28;20056;-73
2022/11/04 10:38:00;;;;;;;31.52;26.80;;;11.60;99.90;;;;;;5071735;28;20044;-72
2022/11/04 10:40:31;;;;;;;28.60;25.45;;;11.60;99.90;;;;;;5071271;28;20028;-77
2022/11/04 10:43:09;;;;;;;29.08;25.67;;;11.60;99.90;;;;;;5073503;28;20044;-86
2022/11/04 10:45:56;;;;;;;29.20;24.75;;;11.70;99.90;;;;;;5061371;28;20503;-83
2022/11/04 10:48:31;;;;;;;25.88;23.08;;;11.60;99.90;;;;;;5060134;28;20083;-85
2022/11/04 10:50:58;;;;;;;27.73;22.83;;;11.60;99.90;;;;;;5046856;28;20051;-84
2022/11/04 10:53:29;;;;;;;25.02;22.02;;;11.60;99.90;;;;;;5069203;28;20047;-87
2022/11/04 10:55:58;;;;;;;28.27;23.23;;;11.60;99.90;;;;;;5066732;28;20082;-84
2022/11/04 10:58:29;;;;;;;25.95;23.15;;;11.50;99.90;;;;;;5069984;28;20056;-74
2022/11/04 11:00:56;;;;;;;25.55;22.67;;;11.50;99.90;;;;;;5077670;28;20047;-69
2022/11/04 11:03:33;;;;;;;26.67;23.75;;;11.50;99.90;;;;;;5069308;28;20516;-71
2022/11/04 11:06:10;;;;;;;27.63;24.45;;;11.60;99.90;;;;;;5048892;28;20052;-80
2022/11/04 11:08:37;;;;;;;30.20;24.73;;;11.60;99.90;;;;;;5048072;28;20392;-78
2022/11/04 11:11:05;;;;;;;29.95;24.45;;;11.60;99.90;;;;;;5085043;28;20043;-85
2022/11/04 11:13:38;;;;;;;26.00;23.20;;;11.70;99.90;;;;;;5080500;28;20036;-67
2022/11/04 11:16:07;;;;;;;26.85;23.95;;;11.80;99.90;;;;;;5082422;28;20480;-77
2022/11/04 11:18:36;;;;;;;27.35;24.08;;;11.90;99.90;;;;;;5068312;28;20079;-77
2022/11/04 11:21:20;;;;;;;27.67;23.45;;;11.90;99.90;;;;;;5058939;28;20515;-81
2022/11/04 11:23:48;;;;;;;26.20;23.40;;;11.90;99.90;;;;;;5061964;28;20041;-77
2022/11/04 11:26:17;;;;;;;26.70;21.58;;;11.90;99.90;;;;;;5054755;28;20955;-76
2022/11/04 11:29:09;;;;;;;25.25;22.55;;;11.90;99.90;;;;;;5059959;28;20070;-81
2022/11/04 11:31:39;;;;;;;25.02;22.35;;;11.90;99.90;;;;;;5069900;28;20047;-74
2022/11/04 11:34:25;;;;;;;24.60;21.85;;;11.80;99.90;;;;;;5071869;28;20666;-78
2022/11/04 11:36:54;;;;;;;22.35;19.98;;;11.90;99.90;;;;;;5051450;28;20080;-86
2022/11/04 11:39:23;;;;;;;24.73;21.15;;;12.00;99.90;;;;;;5065847;28;20040;-84
2022/11/04 11:42:07;;;;;;;24.73;21.02;;;12.10;99.90;;;;;;5076944;28;20051;-85
2022/11/04 11:44:42;;;;;;;26.90;22.98;;;12.20;99.90;;;;;;5068749;28;20045;-74
2022/11/04 11:47:28;;;;;;;24.77;21.55;;;12.20;99.90;;;;;;5069901;28;20051;-74
2022/11/04 11:50:33;;;;;;;22.85;20.20;;;12.20;99.90;;;;;;5067157;28;20678;-71
2022/11/04 11:53:23;;;;;;;23.13;20.25;;;12.40;99.90;;;;;;5061073;28;20055;-72
2022/11/04 11:56:13;;;;;;;24.17;21.27;;;12.40;99.90;;;;;;5067889;28;20059;-73
2022/11/04 11:58:48;;;;;;;26.35;21.65;;;12.50;99.90;;;;;;5063870;28;20063;-70
2022/11/04 12:01:29;;;;;;;22.50;20.17;;;12.50;99.90;;;;;;5066873;28;20067;-72
2022/11/04 12:03:55;;;;;;;22.52;18.80;;;12.40;99.90;;;;;;5066062;28;20151;-73
2022/11/04 12:06:53;;;;;;;21.95;19.58;;;12.50;99.90;;;;;;5062773;28;20492;-71
2022/11/04 12:09:46;;;;;;;21.20;18.98;;;12.40;99.90;;;;;;5057112;28;20546;-80
2022/11/04 12:12:25;;;;;;;21.20;18.30;;;12.50;99.90;;;;;;5069288;28;20044;-73
2022/11/04 12:15:17;;;;;;;22.05;18.73;;;12.50;99.90;;;;;;5077152;28;20086;-74
2022/11/04 12:18:08;;;;;;;17.30;15.25;;;12.60;99.90;;;;;;5069003;28;20044;-74
2022/11/04 12:21:02;;;;;;;21.10;17.27;;;12.70;99.90;;;;;;5069669;28;20052;-76
2022/11/04 12:23:53;;;;;;;19.52;16.70;;;12.70;99.90;;;;;;5068424;28;20734;-75
2022/11/04 12:26:46;;;;;;;19.35;17.33;;;12.80;99.90;;;;;;5057343;28;20056;-75
2022/11/04 12:29:18;;;;;;;20.65;17.83;;;12.90;99.90;;;;;;5058660;28;20685;-78
2022/11/04 12:32:09;;;;;;;19.15;17.15;;;13.00;99.90;;;;;;5054366;28;20155;-73
2022/11/04 12:34:49;;;;;;;17.20;15.38;;;13.10;99.90;;;;;;5068944;28;20055;-73
2022/11/04 12:37:22;;;;;;;19.15;15.88;;;13.20;99.90;;;;;;5065382;28;20131;-77
2022/11/04 12:40:00;;;;;;;18.42;14.68;;;13.20;99.90;;;;;;5062844;28;20056;-79
2022/11/04 12:42:56;;;;;;;15.27;13.30;;;13.20;99.90;;;;;;5086051;28;20047;-78
2022/11/04 12:45:42;;;;;;;14.93;13.13;;;13.20;99.90;;;;;;5070885;28;20093;-79
2022/11/04 12:48:38;;;;;;;15.60;12.32;;;13.10;99.90;;;;;;5072664;28;20049;-77
2022/11/04 12:51:27;;;;;;;14.93;12.88;;;13.00;99.90;;;;;;5058841;28;20504;-79
2022/11/04 12:54:25;;;;;;;14.05;11.82;;;12.90;99.90;;;;;;5055623;28;20053;-78
2022/11/04 12:57:18;;;;;;;17.15;13.60;;;12.80;99.90;;;;;;5061309;28;20486;-81
2022/11/04 13:00:02;;;;;;;16.45;13.43;;;12.80;99.90;;;;;;5077250;28;20044;-79
2022/11/04 13:02:33;;;;;;;15.75;13.02;;;12.80;99.90;;;;;;5074350;28;20438;-76
2022/11/04 13:05:20;;;;;;;15.68;13.50;;;12.90;99.90;;;;;;5071255;28;20558;-78
2022/11/04 13:08:04;;;;;;;17.65;12.77;;;12.90;99.90;;;;;;5068068;28;20093;-79
2022/11/04 13:10:41;;;;;;;16.50;12.10;;;13.00;99.90;;;;;;5074150;28;20766;-77
2022/11/04 13:13:07;;;;;;;;;;;13.10;99.90;;;;;;5070386;28;20048;-73
2022/11/04 13:15:43;;;;;;;17.85;13.60;;;13.10;99.90;;;;;;5073329;28;19924;-75
2022/11/04 13:18:15;;;;;;;15.75;12.45;;;13.20;99.90;;;;;;5078059;28;20384;-74
2022/11/04 13:21:05;;;;;;;14.32;11.70;;;13.20;99.90;;;;;;5064943;28;20049;-76
2022/11/04 13:23:35;;;;;;;16.33;12.07;;;13.30;99.90;;;;;;5063129;28;20084;-74
2022/11/04 13:26:04;;;;;;;6.43;3.03;;;13.30;99.90;;;;;;5069195;28;20067;-82
2022/11/04 13:28:29;;;;;;;5.47;1.17;;;13.30;99.90;;;;;;5053264;28;20062;-75
2022/11/04 13:31:14;;;;;;;3.13;0.88;;;13.10;99.90;;;;;;5069083;28;20403;-74
2022/11/04 13:34:05;;;;;;;3.50;0.90;;;12.90;99.90;;;;;;5064176;28;20547;-79